createdAt,value
2019-05-30T00:00:10.287Z,68.20
2019-05-30T00:02:28.811Z,68.70
2019-05-30T00:04:58.151Z,68.50
2019-05-30T00:07:27.789Z,71.50
2019-05-30T00:09:56.526Z,70.10
2019-05-30T00:12:25.503Z,68.70
2019-05-30T00:14:54.551Z,69.50
2019-05-30T00:17:23.341Z,70.30
2019-05-30T00:19:52.571Z,69.40
2019-05-30T00:22:21.567Z,69.80
2019-05-30T00:24:50.440Z,70.50
2019-05-30T00:27:19.183Z,71.70
2019-05-30T00:29:49.354Z,70.90
2019-05-30T00:32:18.351Z,71.10
2019-05-30T00:34:47.590Z,71.20
2019-05-30T00:37:16.570Z,73.70
2019-05-30T00:39:45.329Z,72.50
2019-05-30T00:42:14.490Z,73.30
2019-05-30T00:44:43.226Z,73.50
2019-05-30T00:47:12.098Z,73.50
2019-05-30T00:49:40.818Z,74.20
2019-05-30T00:52:10.385Z,74.10
2019-05-30T00:54:39.182Z,74.50
2019-05-30T00:57:08.582Z,74.60
2019-05-30T00:59:37.640Z,75.70
2019-05-30T01:02:06.986Z,75.30
2019-05-30T01:04:36.594Z,76.00
2019-05-30T01:07:05.428Z,75.80
2019-05-30T01:09:34.479Z,75.90
2019-05-30T01:12:03.447Z,76.60
2019-05-30T01:14:32.193Z,76.20
2019-05-30T01:17:01.168Z,76.70
2019-05-30T01:19:30.174Z,77.30
2019-05-30T01:21:59.191Z,77.40
2019-05-30T01:24:28.622Z,78.40
2019-05-30T01:26:57.343Z,78.20
2019-05-30T01:29:27.326Z,78.50
2019-05-30T01:31:57.336Z,78.50
2019-05-30T01:34:26.183Z,78.40
2019-05-30T01:36:55.957Z,78.80
2019-05-30T01:39:24.730Z,79.50
2019-05-30T01:41:53.722Z,79.50
2019-05-30T01:44:22.699Z,80.10
2019-05-30T01:46:51.770Z,80.00
2019-05-30T01:49:20.730Z,80.20
2019-05-30T01:51:49.712Z,81.10
2019-05-30T01:54:18.441Z,80.40
2019-05-30T01:56:47.451Z,80.90
2019-05-30T01:59:16.186Z,81.30
2019-05-30T02:01:45.418Z,81.10
2019-05-30T02:04:15.798Z,81.50
2019-05-30T02:06:44.803Z,81.70
2019-05-30T02:09:13.530Z,81.60
2019-05-30T02:11:42.521Z,81.70
2019-05-30T02:14:11.550Z,82.20
2019-05-30T02:16:40.639Z,82.30
2019-05-30T02:19:10.596Z,82.40
2019-05-30T02:21:39.566Z,82.60
2019-05-30T02:24:08.606Z,83.30
2019-05-30T02:26:37.854Z,83.50
2019-05-30T02:29:06.911Z,83.50
2019-05-30T02:31:39.372Z,83.30
2019-05-30T02:34:09.612Z,84.10
2019-05-30T02:36:38.431Z,84.20
2019-05-30T02:39:09.798Z,84.40
2019-05-30T02:41:38.501Z,84.40
2019-05-30T02:44:08.104Z,85.00
2019-05-30T02:46:38.068Z,84.90
2019-05-30T02:49:11.059Z,84.70
2019-05-30T02:51:37.596Z,84.80
2019-05-30T02:54:07.111Z,85.10
2019-05-30T02:56:36.814Z,84.90
2019-05-30T02:59:06.674Z,85.00
2019-05-30T03:01:36.650Z,85.20
2019-05-30T03:04:06.136Z,85.30
2019-05-30T03:06:36.819Z,85.60
2019-05-30T03:09:08.387Z,85.60
2019-05-30T03:11:37.314Z,85.50
2019-05-30T03:14:09.242Z,86.20
2019-05-30T03:16:37.471Z,85.80
2019-05-30T03:19:08.324Z,86.00
2019-05-30T03:21:37.401Z,86.30
2019-05-30T03:24:07.637Z,86.10
2019-05-30T03:26:37.150Z,86.50
2019-05-30T03:29:09.389Z,86.80
2019-05-30T03:31:38.575Z,86.70
2019-05-30T03:34:16.486Z,86.80
2019-05-30T03:36:38.571Z,86.70
2019-05-30T03:39:10.842Z,87.50
2019-05-30T03:41:39.191Z,87.40
2019-05-30T03:44:10.977Z,87.20
2019-05-30T03:46:43.489Z,87.30
2019-05-30T03:49:17.363Z,87.30
2019-05-30T03:51:48.826Z,87.70
2019-05-30T03:54:19.571Z,87.60
2019-05-30T03:56:54.188Z,87.30
2019-05-30T03:59:32.031Z,88.10
2019-05-30T04:02:27.929Z,87.90
2019-05-30T04:05:02.814Z,87.80
2019-05-30T04:07:34.909Z,88.10
2019-05-30T04:10:07.330Z,88.10
2019-05-30T04:13:02.701Z,88.40
2019-05-30T04:15:32.989Z,88.10
2019-05-30T04:18:02.558Z,88.40
2019-05-30T04:20:31.737Z,88.70
2019-05-30T04:23:00.870Z,88.80
2019-05-30T04:25:29.939Z,88.80
2019-05-30T04:27:59.374Z,88.80
2019-05-30T04:30:28.491Z,89.50
2019-05-30T04:33:16.139Z,89.20
2019-05-30T04:35:28.187Z,88.70
2019-05-30T04:37:57.014Z,88.50
2019-05-30T04:40:27.986Z,88.50
2019-05-30T04:42:56.983Z,89.00
2019-05-30T04:45:27.801Z,88.30
2019-05-30T04:47:56.930Z,87.80
2019-05-30T04:50:25.907Z,88.20
2019-05-30T04:52:54.907Z,88.20
2019-05-30T04:55:23.774Z,87.80
2019-05-30T04:57:52.591Z,87.90
2019-05-30T05:00:21.814Z,88.00
2019-05-30T05:02:50.671Z,88.70
2019-05-30T05:05:24.743Z,87.30
2019-05-30T05:07:50.211Z,87.60
2019-05-30T05:10:20.407Z,87.60
2019-05-30T05:12:49.571Z,87.10
2019-05-30T05:15:22.795Z,87.30
2019-05-30T05:17:51.730Z,87.30
2019-05-30T05:20:21.437Z,86.70
2019-05-30T05:22:50.503Z,86.90
2019-05-30T05:25:19.515Z,86.90
2019-05-30T05:27:48.602Z,87.10
2019-05-30T05:30:18.385Z,86.80
2019-05-30T05:32:47.137Z,86.50
2019-05-30T05:35:18.617Z,85.80
2019-05-30T05:37:47.799Z,86.30
2019-05-30T05:40:16.671Z,85.80
2019-05-30T05:42:45.444Z,86.30
2019-05-30T05:45:14.606Z,86.00
2019-05-30T05:47:43.872Z,86.90
2019-05-30T05:50:13.075Z,86.30
2019-05-30T05:52:42.303Z,85.90
2019-05-30T05:55:12.067Z,86.90
2019-05-30T05:57:41.061Z,85.70
2019-05-30T06:00:10.031Z,85.30
2019-05-30T06:02:38.811Z,86.30
2019-05-30T06:05:07.962Z,85.00
2019-05-30T06:07:36.879Z,85.10
2019-05-30T06:10:06.345Z,86.00
2019-05-30T06:12:35.615Z,86.00
2019-05-30T06:15:04.950Z,86.10
2019-05-30T06:17:33.790Z,84.90
2019-05-30T06:20:02.851Z,84.80
2019-05-30T06:22:31.918Z,84.70
2019-05-30T06:25:00.922Z,83.50
2019-05-30T06:27:29.923Z,84.00
2019-05-30T06:29:59.015Z,85.10
2019-05-30T06:32:28.882Z,84.70
2019-05-30T06:34:57.762Z,83.80
2019-05-30T06:37:27.384Z,85.10
2019-05-30T06:39:56.145Z,84.10
2019-05-30T06:42:25.794Z,84.90
2019-05-30T06:44:54.973Z,83.90
2019-05-30T06:47:24.382Z,85.50
2019-05-30T06:49:53.237Z,85.20
2019-05-30T06:52:22.831Z,84.60
2019-05-30T06:54:51.697Z,84.70
2019-05-30T06:57:21.581Z,84.10
2019-05-30T06:59:50.299Z,83.90
2019-05-30T07:02:24.050Z,84.50
2019-05-30T07:04:53.627Z,83.50
2019-05-30T07:07:25.117Z,85.00
2019-05-30T07:09:55.997Z,84.60
2019-05-30T07:12:27.150Z,84.90
2019-05-30T07:14:56.731Z,84.00
2019-05-30T07:17:27.456Z,84.70
2019-05-30T07:19:58.397Z,85.10
2019-05-30T07:22:27.734Z,86.20
2019-05-30T07:24:56.585Z,84.30
2019-05-30T07:27:26.194Z,83.80
2019-05-30T07:29:55.135Z,84.00
2019-05-30T07:32:24.097Z,84.20
2019-05-30T07:35:06.086Z,83.00
2019-05-30T07:37:26.039Z,80.90
2019-05-30T07:39:54.959Z,81.30
2019-05-30T07:42:24.463Z,82.10
2019-05-30T07:44:53.702Z,81.40
2019-05-30T07:47:22.715Z,80.40
2019-05-30T07:49:52.317Z,80.90
2019-05-30T07:52:21.728Z,80.00
2019-05-30T07:54:50.709Z,79.10
2019-05-30T07:57:20.540Z,81.10
2019-05-30T07:59:49.682Z,78.60
2019-05-30T08:02:18.922Z,81.00
2019-05-30T08:04:48.478Z,81.90
2019-05-30T08:07:17.710Z,80.50
2019-05-30T08:09:46.513Z,81.30
2019-05-30T08:12:15.543Z,79.60
2019-05-30T08:14:44.330Z,76.20
2019-05-30T08:17:13.321Z,77.10
2019-05-30T08:19:42.408Z,78.20
2019-05-30T08:22:11.296Z,79.70
2019-05-30T08:24:40.294Z,78.60
2019-05-30T08:27:09.024Z,80.00
2019-05-30T08:29:38.540Z,80.00
2019-05-30T08:32:07.923Z,80.00
2019-05-30T08:34:37.142Z,79.30
2019-05-30T08:37:06.272Z,80.50
2019-05-30T08:39:37.297Z,81.80
2019-05-30T08:42:06.206Z,81.10
2019-05-30T08:44:35.902Z,81.90
2019-05-30T08:47:05.084Z,80.30
2019-05-30T08:49:34.530Z,81.10
2019-05-30T08:52:04.147Z,81.30
2019-05-30T08:54:34.374Z,81.10
2019-05-30T08:57:03.662Z,81.10
2019-05-30T08:59:34.390Z,81.00
2019-05-30T09:02:03.649Z,83.20
2019-05-30T09:04:32.514Z,80.60
2019-05-30T09:07:01.518Z,80.90
2019-05-30T09:09:32.604Z,81.20
2019-05-30T09:12:02.581Z,80.90
2019-05-30T09:14:33.169Z,80.80
2019-05-30T09:17:02.840Z,81.10
2019-05-30T09:19:37.944Z,82.30
2019-05-30T09:22:06.091Z,81.50
2019-05-30T09:24:35.522Z,82.30
2019-05-30T09:27:04.697Z,82.20
2019-05-30T09:29:33.875Z,81.40
2019-05-30T09:32:03.195Z,79.40
2019-05-30T09:34:33.220Z,82.50
2019-05-30T09:37:02.429Z,80.60
2019-05-30T09:39:31.682Z,79.60
2019-05-30T09:42:00.654Z,80.40
2019-05-30T09:44:30.194Z,82.10
2019-05-30T09:46:59.526Z,82.20
2019-05-30T09:49:29.057Z,83.80
2019-05-30T09:51:58.082Z,82.50
2019-05-30T09:54:27.416Z,81.80
2019-05-30T09:56:57.361Z,82.10
2019-05-30T09:59:26.954Z,82.00
2019-05-30T10:01:55.986Z,83.70
2019-05-30T10:04:25.256Z,81.00
2019-05-30T10:06:54.445Z,82.20
2019-05-30T10:09:23.878Z,82.10
2019-05-30T10:11:53.520Z,82.50
2019-05-30T10:14:23.181Z,82.40
2019-05-30T10:16:55.023Z,81.20
2019-05-30T10:19:22.795Z,82.60
2019-05-30T10:21:52.042Z,81.70
2019-05-30T10:24:22.205Z,81.60
2019-05-30T10:26:51.241Z,82.80
2019-05-30T10:29:19.964Z,81.00
2019-05-30T10:31:50.555Z,82.50
2019-05-30T10:34:20.153Z,82.20
2019-05-30T10:36:51.667Z,83.90
2019-05-30T10:39:20.773Z,83.30
2019-05-30T10:41:50.924Z,83.00
2019-05-30T10:44:21.257Z,83.90
2019-05-30T10:46:51.028Z,86.10
2019-05-30T10:49:33.598Z,84.20
2019-05-30T10:51:51.641Z,85.30
2019-05-30T10:54:21.082Z,86.60
2019-05-30T10:56:50.080Z,87.30
2019-05-30T10:59:19.500Z,84.60
2019-05-30T11:01:48.531Z,83.70
2019-05-30T11:04:17.781Z,84.30
2019-05-30T11:07:07.594Z,84.20
2019-05-30T11:09:29.713Z,83.80
2019-05-30T11:11:58.456Z,83.30
2019-05-30T11:14:27.692Z,82.90
2019-05-30T11:16:57.707Z,83.20
2019-05-30T11:19:26.739Z,85.00
2019-05-30T11:21:56.261Z,83.90
2019-05-30T11:24:25.081Z,84.40
2019-05-30T11:26:55.506Z,82.60
2019-05-30T11:29:24.843Z,82.50
2019-05-30T11:31:54.918Z,83.20
2019-05-30T11:34:23.754Z,83.30
2019-05-30T11:36:53.115Z,82.80
2019-05-30T11:39:22.077Z,82.80
2019-05-30T11:41:51.172Z,84.00
2019-05-30T11:44:20.458Z,84.70
2019-05-30T11:46:49.737Z,83.80
2019-05-30T11:49:19.534Z,83.10
2019-05-30T11:51:49.591Z,83.10
2019-05-30T11:54:18.453Z,83.40
2019-05-30T11:56:48.474Z,84.30
2019-05-30T11:59:17.222Z,83.40
2019-05-30T12:01:45.939Z,83.80
2019-05-30T12:04:14.707Z,84.80
2019-05-30T12:06:43.880Z,83.90
2019-05-30T12:09:14.613Z,85.50
2019-05-30T12:11:43.530Z,85.80
2019-05-30T12:14:12.288Z,85.50
2019-05-30T12:16:41.603Z,86.10
2019-05-30T12:19:10.622Z,85.50
2019-05-30T12:21:39.597Z,85.90
2019-05-30T12:24:08.961Z,85.70
2019-05-30T12:26:37.773Z,87.60
2019-05-30T12:29:06.515Z,86.00
2019-05-30T12:31:35.513Z,85.30
2019-05-30T12:34:04.329Z,84.70
2019-05-30T12:36:33.378Z,86.00
2019-05-30T12:39:02.876Z,86.90
2019-05-30T12:41:31.652Z,86.80
2019-05-30T12:44:01.359Z,87.30
2019-05-30T12:46:30.234Z,87.30
2019-05-30T12:48:59.473Z,87.90
2019-05-30T12:51:28.981Z,87.00
2019-05-30T12:53:58.454Z,87.80
2019-05-30T12:56:28.168Z,87.70
2019-05-30T12:58:57.223Z,87.60
2019-05-30T13:01:27.448Z,87.50
2019-05-30T13:03:56.961Z,87.90
2019-05-30T13:06:25.872Z,88.50
2019-05-30T13:08:55.147Z,89.00
2019-05-30T13:11:23.872Z,88.80
2019-05-30T13:13:55.025Z,88.80
2019-05-30T13:16:23.808Z,88.40
2019-05-30T13:18:52.666Z,88.50
2019-05-30T13:21:21.582Z,89.10
2019-05-30T13:23:50.956Z,88.50
2019-05-30T13:26:19.757Z,88.90
2019-05-30T13:28:48.786Z,90.00
2019-05-30T13:31:17.790Z,90.10
2019-05-30T13:33:46.766Z,89.50
2019-05-30T13:36:15.588Z,90.10
2019-05-30T13:38:44.414Z,90.00
2019-05-30T13:41:13.155Z,89.60
2019-05-30T13:43:41.889Z,90.00
2019-05-30T13:46:10.926Z,89.90
2019-05-30T13:48:40.218Z,88.90
2019-05-30T13:51:09.449Z,90.00
2019-05-30T13:53:38.273Z,90.10
2019-05-30T13:56:07.786Z,89.30
2019-05-30T13:58:36.810Z,90.00
2019-05-30T14:01:11.488Z,90.10
2019-05-30T14:03:36.015Z,90.00
2019-05-30T14:06:06.103Z,89.60
2019-05-30T14:08:41.547Z,89.40
2019-05-30T14:11:06.774Z,89.50
2019-05-30T14:13:35.891Z,90.00
2019-05-30T14:16:04.890Z,90.20
2019-05-30T14:18:34.233Z,90.90
2019-05-30T14:21:03.594Z,89.50
2019-05-30T14:23:32.637Z,89.30
2019-05-30T14:26:01.677Z,89.60
2019-05-30T14:28:30.640Z,90.00
2019-05-30T14:30:59.492Z,90.00
2019-05-30T14:33:28.213Z,90.00
2019-05-30T14:35:56.965Z,90.00
2019-05-30T14:38:25.933Z,89.30
2019-05-30T14:40:54.974Z,90.00
2019-05-30T14:43:23.723Z,90.10
2019-05-30T14:45:52.762Z,90.40
2019-05-30T14:48:21.802Z,89.60
2019-05-30T14:50:51.043Z,89.50
2019-05-30T14:53:20.043Z,90.20
2019-05-30T14:55:49.018Z,90.50
2019-05-30T14:58:17.912Z,90.70
2019-05-30T15:00:46.723Z,90.30
2019-05-30T15:03:16.043Z,90.30
2019-05-30T15:05:44.969Z,90.20
2019-05-30T15:08:14.227Z,90.30
2019-05-30T15:10:43.199Z,90.60
2019-05-30T15:13:11.942Z,90.30
2019-05-30T15:15:40.667Z,90.60
2019-05-30T15:18:09.648Z,90.70
2019-05-30T15:20:38.404Z,90.60
2019-05-30T15:23:07.601Z,90.50
2019-05-30T15:25:36.323Z,90.50
2019-05-30T15:28:05.984Z,90.50
2019-05-30T15:30:35.157Z,90.60
2019-05-30T15:33:03.913Z,90.90
2019-05-30T15:35:32.673Z,91.00
2019-05-30T15:38:01.466Z,90.60
2019-05-30T15:40:30.639Z,90.70
2019-05-30T15:42:59.994Z,90.90
2019-05-30T15:45:29.110Z,91.00
2019-05-30T15:47:57.834Z,91.10
2019-05-30T15:50:26.980Z,90.60
2019-05-30T15:52:55.730Z,90.70
2019-05-30T15:55:24.568Z,90.90
2019-05-30T15:57:53.316Z,91.00
2019-05-30T16:00:23.022Z,91.30
2019-05-30T16:02:51.991Z,90.50
2019-05-30T16:05:21.246Z,90.70
2019-05-30T16:07:50.222Z,90.90
2019-05-30T16:10:19.572Z,91.10
2019-05-30T16:12:48.546Z,91.10
2019-05-30T16:15:17.672Z,91.10
2019-05-30T16:17:46.931Z,90.60
2019-05-30T16:20:16.002Z,91.00
2019-05-30T16:22:44.877Z,90.90
2019-05-30T16:25:13.867Z,90.90
2019-05-30T16:27:42.954Z,91.00
2019-05-30T16:30:17.316Z,90.90
2019-05-30T16:32:43.329Z,91.10
2019-05-30T16:35:14.170Z,91.40
2019-05-30T16:37:43.239Z,91.10
2019-05-30T16:40:12.368Z,91.30
2019-05-30T16:42:41.395Z,91.40
2019-05-30T16:45:18.136Z,91.60
2019-05-30T16:47:43.821Z,91.40
2019-05-30T16:50:14.654Z,91.50
2019-05-30T16:52:43.709Z,92.10
2019-05-30T16:55:12.816Z,91.80
2019-05-30T16:57:41.551Z,91.90
2019-05-30T17:00:11.239Z,91.90
2019-05-30T17:02:40.075Z,92.00
2019-05-30T17:05:13.261Z,92.00
2019-05-30T17:07:42.931Z,92.20
2019-05-30T17:10:22.384Z,92.10
2019-05-30T17:12:43.117Z,92.20
2019-05-30T17:15:12.815Z,92.50
2019-05-30T17:17:41.530Z,92.70
2019-05-30T17:20:11.576Z,92.70
2019-05-30T17:22:40.548Z,92.90
2019-05-30T17:25:10.641Z,93.00
2019-05-30T17:27:40.427Z,93.30
2019-05-30T17:30:11.697Z,93.20
2019-05-30T17:32:40.737Z,93.10
2019-05-30T17:35:11.346Z,93.10
2019-05-30T17:37:40.425Z,93.20
2019-05-30T17:40:10.896Z,93.30
2019-05-30T17:42:40.208Z,93.50
2019-05-30T17:45:10.868Z,93.60
2019-05-30T17:47:39.670Z,93.70
2019-05-30T17:50:09.642Z,93.80
2019-05-30T17:52:38.865Z,93.90
2019-05-30T17:55:08.098Z,93.90
2019-05-30T17:57:37.141Z,93.90
2019-05-30T18:00:06.541Z,94.00
2019-05-30T18:02:36.011Z,93.90
2019-05-30T18:05:06.504Z,93.80
2019-05-30T18:07:35.581Z,94.10
2019-05-30T18:10:05.009Z,94.00
2019-05-30T18:12:34.314Z,94.10
2019-05-30T18:15:04.858Z,94.20
2019-05-30T18:17:34.218Z,94.00
2019-05-30T18:20:03.236Z,93.90
2019-05-30T18:22:32.359Z,94.00
2019-05-30T18:25:01.198Z,93.90
2019-05-30T18:27:30.008Z,94.10
2019-05-30T18:29:59.075Z,94.10
2019-05-30T18:32:28.311Z,94.10
2019-05-30T18:34:57.650Z,94.00
2019-05-30T18:37:26.605Z,94.00
2019-05-30T18:39:55.786Z,94.00
2019-05-30T18:42:25.400Z,94.20
2019-05-30T18:44:54.267Z,94.10
2019-05-30T18:47:23.345Z,94.20
2019-05-30T18:49:52.339Z,94.20
2019-05-30T18:52:21.166Z,94.00
2019-05-30T18:54:50.188Z,94.00
2019-05-30T18:57:19.270Z,94.00
2019-05-30T18:59:48.237Z,94.20
2019-05-30T19:02:18.564Z,94.20
2019-05-30T19:04:47.546Z,94.20
2019-05-30T19:07:16.802Z,94.20
2019-05-30T19:09:45.577Z,94.40
2019-05-30T19:12:14.730Z,94.50
2019-05-30T19:14:44.208Z,94.60
2019-05-30T19:17:13.215Z,94.70
2019-05-30T19:19:42.284Z,94.60
2019-05-30T19:22:11.356Z,94.70
2019-05-30T19:24:40.233Z,94.60
2019-05-30T19:27:09.367Z,95.10
2019-05-30T19:29:38.414Z,94.90
2019-05-30T19:32:07.491Z,95.00
2019-05-30T19:34:37.077Z,95.10
2019-05-30T19:37:06.173Z,95.10
2019-05-30T19:39:35.714Z,95.30
2019-05-30T19:42:05.001Z,95.50
2019-05-30T19:44:37.618Z,95.30
2019-05-30T19:47:04.509Z,95.50
2019-05-30T19:49:34.690Z,95.60
2019-05-30T19:52:03.525Z,95.70
2019-05-30T19:54:33.087Z,95.60
2019-05-30T19:57:02.346Z,95.70
2019-05-30T19:59:31.717Z,95.70
2019-05-30T20:02:00.802Z,95.80
2019-05-30T20:04:30.171Z,95.70
2019-05-30T20:06:58.993Z,95.70
2019-05-30T20:09:27.838Z,95.70
2019-05-30T20:12:03.710Z,95.70
2019-05-30T20:14:27.371Z,95.70
2019-05-30T20:16:56.597Z,95.60
2019-05-30T20:19:25.753Z,95.80
2019-05-30T20:21:54.554Z,95.90
2019-05-30T20:24:23.346Z,96.10
2019-05-30T20:26:52.076Z,96.20
2019-05-30T20:29:21.087Z,96.30
2019-05-30T20:31:49.837Z,96.40
2019-05-30T20:34:18.582Z,96.60
2019-05-30T20:36:47.569Z,96.60
2019-05-30T20:39:16.942Z,96.70
2019-05-30T20:41:45.676Z,96.70
2019-05-30T20:44:14.406Z,96.90
2019-05-30T20:46:43.401Z,97.00
2019-05-30T20:49:12.547Z,97.00
2019-05-30T20:51:41.862Z,97.30
2019-05-30T20:54:11.031Z,97.10
2019-05-30T20:56:41.435Z,97.10
2019-05-30T20:59:10.603Z,97.20
2019-05-30T21:01:39.675Z,97.20
2019-05-30T21:04:08.581Z,97.30
2019-05-30T21:06:38.776Z,97.20
2019-05-30T21:09:08.319Z,97.40
2019-05-30T21:11:39.989Z,97.40
2019-05-30T21:14:08.825Z,97.40
2019-05-30T21:16:40.054Z,97.50
2019-05-30T21:19:09.279Z,97.70
2019-05-30T21:21:38.033Z,97.60
2019-05-30T21:24:07.346Z,97.50
2019-05-30T21:26:36.676Z,97.50
2019-05-30T21:29:05.734Z,97.60
2019-05-30T21:31:34.829Z,97.70
2019-05-30T21:34:03.897Z,97.80
2019-05-30T21:36:32.959Z,97.60
2019-05-30T21:39:02.505Z,97.60
2019-05-30T21:41:31.328Z,97.70
2019-05-30T21:44:00.067Z,97.80
2019-05-30T21:46:28.882Z,97.60
2019-05-30T21:48:57.610Z,97.60
2019-05-30T21:51:26.366Z,97.60
2019-05-30T21:53:55.265Z,97.70
2019-05-30T21:56:24.299Z,97.80
2019-05-30T21:58:53.030Z,97.70
2019-05-30T22:01:29.839Z,97.70
2019-05-30T22:03:58.904Z,97.80
2019-05-30T22:06:28.191Z,97.80
2019-05-30T22:08:57.501Z,97.70
2019-05-30T22:11:26.498Z,97.90
2019-05-30T22:13:55.633Z,97.90
2019-05-30T22:16:24.433Z,97.80
2019-05-30T22:18:53.638Z,98.00
2019-05-30T22:21:22.779Z,97.90
2019-05-30T22:23:52.516Z,98.10
2019-05-30T22:26:22.272Z,98.10
2019-05-30T22:28:52.540Z,98.00
2019-05-30T22:31:21.569Z,97.90
2019-05-30T22:33:51.640Z,97.90
2019-05-30T22:36:20.598Z,98.00
2019-05-30T22:38:49.430Z,98.00
2019-05-30T22:41:18.158Z,98.20
2019-05-30T22:43:46.977Z,98.10
2019-05-30T22:46:16.231Z,98.10
2019-05-30T22:48:46.394Z,98.10
2019-05-30T22:51:15.483Z,98.10
2019-05-30T22:53:44.962Z,98.30
2019-05-30T22:56:13.741Z,98.30
2019-05-30T22:58:42.755Z,98.30
2019-05-30T23:01:11.834Z,98.30
2019-05-30T23:03:40.640Z,98.30
2019-05-30T23:06:09.682Z,98.30
2019-05-30T23:08:38.667Z,98.30
2019-05-30T23:11:07.670Z,98.40
2019-05-30T23:13:40.406Z,98.40
2019-05-30T23:16:06.971Z,98.40
2019-05-30T23:18:36.068Z,98.40
2019-05-30T23:21:05.367Z,98.50
2019-05-30T23:23:34.614Z,98.50
2019-05-30T23:26:03.650Z,98.50
2019-05-30T23:28:32.401Z,98.50
2019-05-30T23:31:01.629Z,98.60
2019-05-30T23:33:30.610Z,98.60
2019-05-30T23:35:59.595Z,98.60
2019-05-30T23:38:28.569Z,98.60
2019-05-30T23:40:57.307Z,98.70
2019-05-30T23:43:26.533Z,98.70
2019-05-30T23:45:55.769Z,98.70
2019-05-30T23:48:24.878Z,98.70
2019-05-30T23:50:55.966Z,98.70
2019-05-30T23:53:24.746Z,98.80
2019-05-30T23:55:54.284Z,98.80
2019-05-30T23:58:23.406Z,98.80
